sensor_id;sensor_type;location;lat;lon;timestamp;temperature;humidity
18305;DHT22;9278;52.156;21.048;2023-04-06T00:02:19;2.60;99.90
18305;DHT22;9278;52.156;21.048;2023-04-06T00:04:47;2.70;99.90
18305;DHT22;9278;52.156;21.048;2023-04-06T00:07:15;2.60;99.90
18305;DHT22;9278;52.156;21.048;2023-04-06T00:09:43;2.70;99.90
18305;DHT22;9278;52.156;21.048;2023-04-06T00:12:12;2.50;99.90
18305;DHT22;9278;52.156;21.048;2023-04-06T00:14:40;2.50;99.90
18305;DHT22;9278;52.156;21.048;2023-04-06T00:17:08;2.70;99.90
18305;DHT22;9278;52.156;21.048;2023-04-06T00:19:38;2.60;99.90
18305;DHT22;9278;52.156;21.048;2023-04-06T00:22:06;2.60;99.90
18305;DHT22;9278;52.156;21.048;2023-04-06T00:24:34;2.50;99.90
18305;DHT22;9278;52.156;21.048;2023-04-06T00:27:02;2.50;99.90
18305;DHT22;9278;52.156;21.048;2023-04-06T00:32:00;2.50;99.90
18305;DHT22;9278;52.156;21.048;2023-04-06T00:34:28;2.80;99.90
18305;DHT22;9278;52.156;21.048;2023-04-06T00:36:58;2.60;99.90
18305;DHT22;9278;52.156;21.048;2023-04-06T00:39:26;2.70;99.90
18305;DHT22;9278;52.156;21.048;2023-04-06T00:41:54;2.50;99.90
18305;DHT22;9278;52.156;21.048;2023-04-06T00:44:24;2.60;99.90
18305;DHT22;9278;52.156;21.048;2023-04-06T00:46:52;2.70;99.90
18305;DHT22;9278;52.156;21.048;2023-04-06T00:49:20;2.60;99.90
18305;DHT22;9278;52.156;21.048;2023-04-06T00:51:49;2.60;99.90
18305;DHT22;9278;52.156;21.048;2023-04-06T00:54:18;2.60;99.90
18305;DHT22;9278;52.156;21.048;2023-04-06T00:56:47;2.60;99.90
18305;DHT22;9278;52.156;21.048;2023-04-06T00:59:15;2.60;99.90
18305;DHT22;9278;52.156;21.048;2023-04-06T01:01:44;2.60;99.90
18305;DHT22;9278;52.156;21.048;2023-04-06T01:04:31;2.60;99.90
18305;DHT22;9278;52.156;21.048;2023-04-06T01:07:01;2.40;99.90
18305;DHT22;9278;52.156;21.048;2023-04-06T01:09:40;2.70;99.90
18305;DHT22;9278;52.156;21.048;2023-04-06T01:12:16;2.60;99.90
18305;DHT22;9278;52.156;21.048;2023-04-06T01:14:45;2.60;99.90
18305;DHT22;9278;52.156;21.048;2023-04-06T01:17:14;2.50;99.90
18305;DHT22;9278;52.156;21.048;2023-04-06T01:19:43;2.50;99.90
18305;DHT22;9278;52.156;21.048;2023-04-06T01:22:22;2.30;99.90
18305;DHT22;9278;52.156;21.048;2023-04-06T01:25:01;2.30;99.90
18305;DHT22;9278;52.156;21.048;2023-04-06T01:27:52;2.40;99.90
18305;DHT22;9278;52.156;21.048;2023-04-06T01:30:24;2.30;99.90
18305;DHT22;9278;52.156;21.048;2023-04-06T01:32:57;2.30;99.90
18305;DHT22;9278;52.156;21.048;2023-04-06T01:38:22;2.40;99.90
18305;DHT22;9278;52.156;21.048;2023-04-06T01:40:50;2.40;99.90
18305;DHT22;9278;52.156;21.048;2023-04-06T01:43:21;2.40;99.90
18305;DHT22;9278;52.156;21.048;2023-04-06T01:46:00;2.40;99.90
18305;DHT22;9278;52.156;21.048;2023-04-06T01:48:33;2.40;99.90
18305;DHT22;9278;52.156;21.048;2023-04-06T01:51:10;2.30;99.90
18305;DHT22;9278;52.156;21.048;2023-04-06T01:53:48;2.20;99.90
18305;DHT22;9278;52.156;21.048;2023-04-06T01:56:19;2.40;99.90
18305;DHT22;9278;52.156;21.048;2023-04-06T02:01:36;2.30;99.90
18305;DHT22;9278;52.156;21.048;2023-04-06T02:04:05;2.30;99.90
18305;DHT22;9278;52.156;21.048;2023-04-06T02:06:33;2.30;99.90
18305;DHT22;9278;52.156;21.048;2023-04-06T02:09:05;2.30;99.90
18305;DHT22;9278;52.156;21.048;2023-04-06T02:14:03;2.20;99.90
18305;DHT22;9278;52.156;21.048;2023-04-06T02:16:36;2.30;99.90
18305;DHT22;9278;52.156;21.048;2023-04-06T02:19:05;2.20;99.90
18305;DHT22;9278;52.156;21.048;2023-04-06T02:21:33;2.20;99.90
18305;DHT22;9278;52.156;21.048;2023-04-06T02:24:02;2.30;99.90
18305;DHT22;9278;52.156;21.048;2023-04-06T02:26:31;2.30;99.90
18305;DHT22;9278;52.156;21.048;2023-04-06T02:29:00;2.30;99.90
18305;DHT22;9278;52.156;21.048;2023-04-06T02:31:28;2.20;99.90
18305;DHT22;9278;52.156;21.048;2023-04-06T02:33:57;2.10;99.90
18305;DHT22;9278;52.156;21.048;2023-04-06T02:36:26;2.20;99.90
18305;DHT22;9278;52.156;21.048;2023-04-06T02:38:54;2.10;99.90
18305;DHT22;9278;52.156;21.048;2023-04-06T02:41:23;2.20;99.90
18305;DHT22;9278;52.156;21.048;2023-04-06T02:43:52;2.20;99.90
18305;DHT22;9278;52.156;21.048;2023-04-06T02:46:32;2.10;99.90
18305;DHT22;9278;52.156;21.048;2023-04-06T02:49:02;2.00;99.90
18305;DHT22;9278;52.156;21.048;2023-04-06T02:51:33;1.90;99.90
18305;DHT22;9278;52.156;21.048;2023-04-06T02:54:15;1.90;99.90
18305;DHT22;9278;52.156;21.048;2023-04-06T02:56:43;1.90;99.90
18305;DHT22;9278;52.156;21.048;2023-04-06T02:59:14;1.90;99.90
18305;DHT22;9278;52.156;21.048;2023-04-06T03:01:49;2.00;99.90
18305;DHT22;9278;52.156;21.048;2023-04-06T03:04:18;2.00;99.90
18305;DHT22;9278;52.156;21.048;2023-04-06T03:06:46;1.90;99.90
18305;DHT22;9278;52.156;21.048;2023-04-06T03:09:24;1.90;99.90
18305;DHT22;9278;52.156;21.048;2023-04-06T03:11:52;1.90;99.90
18305;DHT22;9278;52.156;21.048;2023-04-06T03:14:22;2.00;99.90
18305;DHT22;9278;52.156;21.048;2023-04-06T03:16:51;2.00;99.90
18305;DHT22;9278;52.156;21.048;2023-04-06T03:19:21;2.00;99.90
18305;DHT22;9278;52.156;21.048;2023-04-06T03:21:50;1.80;99.90
18305;DHT22;9278;52.156;21.048;2023-04-06T03:24:20;1.80;99.90
18305;DHT22;9278;52.156;21.048;2023-04-06T03:26:48;1.80;99.90
18305;DHT22;9278;52.156;21.048;2023-04-06T03:29:17;1.90;99.90
18305;DHT22;9278;52.156;21.048;2023-04-06T03:31:47;1.80;99.90
18305;DHT22;9278;52.156;21.048;2023-04-06T03:34:38;1.80;99.90
18305;DHT22;9278;52.156;21.048;2023-04-06T03:37:07;1.70;99.90
18305;DHT22;9278;52.156;21.048;2023-04-06T03:39:43;2.20;99.90
18305;DHT22;9278;52.156;21.048;2023-04-06T03:42:17;1.60;99.90
18305;DHT22;9278;52.156;21.048;2023-04-06T03:44:51;1.60;99.90
18305;DHT22;9278;52.156;21.048;2023-04-06T03:47:20;1.60;99.90
18305;DHT22;9278;52.156;21.048;2023-04-06T03:49:50;1.60;99.90
18305;DHT22;9278;52.156;21.048;2023-04-06T03:52:19;1.60;99.90
18305;DHT22;9278;52.156;21.048;2023-04-06T03:54:51;1.60;99.90
18305;DHT22;9278;52.156;21.048;2023-04-06T03:57:19;1.60;99.90
18305;DHT22;9278;52.156;21.048;2023-04-06T03:59:47;1.60;99.90
18305;DHT22;9278;52.156;21.048;2023-04-06T04:02:15;1.60;99.90
18305;DHT22;9278;52.156;21.048;2023-04-06T04:04:45;1.70;99.90
18305;DHT22;9278;52.156;21.048;2023-04-06T04:07:13;1.70;99.90
18305;DHT22;9278;52.156;21.048;2023-04-06T04:09:41;1.80;99.90
18305;DHT22;9278;52.156;21.048;2023-04-06T04:12:10;1.70;99.90
18305;DHT22;9278;52.156;21.048;2023-04-06T04:14:39;1.70;99.90
18305;DHT22;9278;52.156;21.048;2023-04-06T04:17:07;1.70;99.90
18305;DHT22;9278;52.156;21.048;2023-04-06T04:19:35;1.70;99.90
18305;DHT22;9278;52.156;21.048;2023-04-06T04:22:05;1.40;99.90
18305;DHT22;9278;52.156;21.048;2023-04-06T04:27:06;1.70;99.90
18305;DHT22;9278;52.156;21.048;2023-04-06T04:29:34;1.70;99.90
18305;DHT22;9278;52.156;21.048;2023-04-06T04:32:07;1.90;99.90
18305;DHT22;9278;52.156;21.048;2023-04-06T04:34:35;1.80;99.90
18305;DHT22;9278;52.156;21.048;2023-04-06T04:37:11;1.80;99.90
18305;DHT22;9278;52.156;21.048;2023-04-06T04:39:52;1.80;99.90
18305;DHT22;9278;52.156;21.048;2023-04-06T04:42:21;1.60;99.90
18305;DHT22;9278;52.156;21.048;2023-04-06T04:44:52;1.80;99.90
18305;DHT22;9278;52.156;21.048;2023-04-06T04:47:31;2.00;99.90
18305;DHT22;9278;52.156;21.048;2023-04-06T04:52:31;1.90;99.90
18305;DHT22;9278;52.156;21.048;2023-04-06T04:55:11;1.90;99.90
18305;DHT22;9278;52.156;21.048;2023-04-06T04:57:41;2.00;99.90
18305;DHT22;9278;52.156;21.048;2023-04-06T05:00:10;1.80;99.90
18305;DHT22;9278;52.156;21.048;2023-04-06T05:02:42;1.90;99.90
18305;DHT22;9278;52.156;21.048;2023-04-06T05:05:15;1.90;99.90
18305;DHT22;9278;52.156;21.048;2023-04-06T05:07:44;2.00;99.90
18305;DHT22;9278;52.156;21.048;2023-04-06T05:10:33;2.20;99.90
18305;DHT22;9278;52.156;21.048;2023-04-06T05:13:03;2.20;99.90
18305;DHT22;9278;52.156;21.048;2023-04-06T05:15:31;2.20;99.90
18305;DHT22;9278;52.156;21.048;2023-04-06T05:18:08;2.10;99.90
18305;DHT22;9278;52.156;21.048;2023-04-06T05:20:38;2.00;99.90
18305;DHT22;9278;52.156;21.048;2023-04-06T05:23:08;2.00;99.90
18305;DHT22;9278;52.156;21.048;2023-04-06T05:25:37;2.20;99.90
18305;DHT22;9278;52.156;21.048;2023-04-06T05:28:14;2.40;99.90
18305;DHT22;9278;52.156;21.048;2023-04-06T05:30:44;2.50;99.90
18305;DHT22;9278;52.156;21.048;2023-04-06T05:33:14;2.40;99.90
18305;DHT22;9278;52.156;21.048;2023-04-06T05:35:59;2.20;99.90
18305;DHT22;9278;52.156;21.048;2023-04-06T05:38:30;2.70;99.90
18305;DHT22;9278;52.156;21.048;2023-04-06T05:41:09;3.10;99.90
18305;DHT22;9278;52.156;21.048;2023-04-06T05:43:39;3.00;99.90
18305;DHT22;9278;52.156;21.048;2023-04-06T05:46:07;2.80;99.90
18305;DHT22;9278;52.156;21.048;2023-04-06T05:48:35;2.80;99.90
18305;DHT22;9278;52.156;21.048;2023-04-06T05:51:04;2.80;99.90
18305;DHT22;9278;52.156;21.048;2023-04-06T05:53:43;3.00;99.90
18305;DHT22;9278;52.156;21.048;2023-04-06T05:56:12;3.00;99.90
18305;DHT22;9278;52.156;21.048;2023-04-06T05:58:40;3.10;99.90
18305;DHT22;9278;52.156;21.048;2023-04-06T06:01:12;3.20;99.90
18305;DHT22;9278;52.156;21.048;2023-04-06T06:03:44;3.20;99.90
18305;DHT22;9278;52.156;21.048;2023-04-06T06:06:13;3.00;99.90
18305;DHT22;9278;52.156;21.048;2023-04-06T06:09:06;3.20;99.90
18305;DHT22;9278;52.156;21.048;2023-04-06T06:11:41;3.10;99.90
18305;DHT22;9278;52.156;21.048;2023-04-06T06:14:13;3.00;99.90
18305;DHT22;9278;52.156;21.048;2023-04-06T06:16:42;2.90;99.90
18305;DHT22;9278;52.156;21.048;2023-04-06T06:19:12;3.00;99.90
18305;DHT22;9278;52.156;21.048;2023-04-06T06:21:42;2.90;99.90
18305;DHT22;9278;52.156;21.048;2023-04-06T06:24:12;3.30;99.90
18305;DHT22;9278;52.156;21.048;2023-04-06T06:26:40;3.40;99.90
18305;DHT22;9278;52.156;21.048;2023-04-06T06:29:10;3.50;99.90
18305;DHT22;9278;52.156;21.048;2023-04-06T06:31:39;3.30;99.90
18305;DHT22;9278;52.156;21.048;2023-04-06T06:34:07;3.60;99.90
18305;DHT22;9278;52.156;21.048;2023-04-06T06:36:36;3.70;99.90
18305;DHT22;9278;52.156;21.048;2023-04-06T06:39:07;3.60;99.90
18305;DHT22;9278;52.156;21.048;2023-04-06T06:41:38;3.70;99.90
18305;DHT22;9278;52.156;21.048;2023-04-06T06:44:07;3.30;99.90
18305;DHT22;9278;52.156;21.048;2023-04-06T06:46:36;4.50;99.90
18305;DHT22;9278;52.156;21.048;2023-04-06T06:49:05;3.30;99.90
18305;DHT22;9278;52.156;21.048;2023-04-06T06:51:34;3.20;99.90
18305;DHT22;9278;52.156;21.048;2023-04-06T06:54:02;3.40;99.90
18305;DHT22;9278;52.156;21.048;2023-04-06T06:59:00;3.30;99.90
18305;DHT22;9278;52.156;21.048;2023-04-06T07:01:28;3.70;99.90
18305;DHT22;9278;52.156;21.048;2023-04-06T07:03:57;4.10;99.90
18305;DHT22;9278;52.156;21.048;2023-04-06T07:06:25;4.20;99.90
18305;DHT22;9278;52.156;21.048;2023-04-06T07:08:53;4.40;99.90
18305;DHT22;9278;52.156;21.048;2023-04-06T07:11:23;4.00;99.90
18305;DHT22;9278;52.156;21.048;2023-04-06T07:13:51;4.10;99.90
18305;DHT22;9278;52.156;21.048;2023-04-06T07:16:21;3.70;99.90
18305;DHT22;9278;52.156;21.048;2023-04-06T07:18:49;4.00;99.90
18305;DHT22;9278;52.156;21.048;2023-04-06T07:21:18;3.60;99.90
18305;DHT22;9278;52.156;21.048;2023-04-06T07:23:47;4.00;99.90
18305;DHT22;9278;52.156;21.048;2023-04-06T07:26:16;3.90;99.90
18305;DHT22;9278;52.156;21.048;2023-04-06T07:31:13;4.00;99.90
18305;DHT22;9278;52.156;21.048;2023-04-06T07:33:42;4.00;99.90
18305;DHT22;9278;52.156;21.048;2023-04-06T07:36:12;4.10;99.90
18305;DHT22;9278;52.156;21.048;2023-04-06T07:38:40;4.30;99.90
18305;DHT22;9278;52.156;21.048;2023-04-06T07:41:08;4.50;99.90
18305;DHT22;9278;52.156;21.048;2023-04-06T07:43:36;4.40;99.90
18305;DHT22;9278;52.156;21.048;2023-04-06T07:46:06;4.50;99.90
18305;DHT22;9278;52.156;21.048;2023-04-06T07:51:07;3.70;99.90
18305;DHT22;9278;52.156;21.048;2023-04-06T07:53:39;3.40;99.90
18305;DHT22;9278;52.156;21.048;2023-04-06T07:56:07;3.90;99.90
18305;DHT22;9278;52.156;21.048;2023-04-06T07:58:35;4.20;99.90
18305;DHT22;9278;52.156;21.048;2023-04-06T08:01:03;3.70;99.90
18305;DHT22;9278;52.156;21.048;2023-04-06T08:03:33;3.30;99.90
18305;DHT22;9278;52.156;21.048;2023-04-06T08:06:02;3.50;99.90
18305;DHT22;9278;52.156;21.048;2023-04-06T08:08:32;3.40;99.90
18305;DHT22;9278;52.156;21.048;2023-04-06T08:11:01;3.90;99.90
18305;DHT22;9278;52.156;21.048;2023-04-06T08:13:29;3.80;99.90
18305;DHT22;9278;52.156;21.048;2023-04-06T08:15:59;3.50;99.90
18305;DHT22;9278;52.156;21.048;2023-04-06T08:20:56;3.60;99.90
18305;DHT22;9278;52.156;21.048;2023-04-06T08:23:25;3.40;99.90
18305;DHT22;9278;52.156;21.048;2023-04-06T08:25:54;3.90;99.90
18305;DHT22;9278;52.156;21.048;2023-04-06T08:28:23;3.80;99.90
18305;DHT22;9278;52.156;21.048;2023-04-06T08:30:51;4.30;99.90
18305;DHT22;9278;52.156;21.048;2023-04-06T08:33:19;4.70;99.90
18305;DHT22;9278;52.156;21.048;2023-04-06T08:35:48;4.50;99.90
18305;DHT22;9278;52.156;21.048;2023-04-06T08:38:16;4.30;99.90
18305;DHT22;9278;52.156;21.048;2023-04-06T08:40:44;4.10;99.90
18305;DHT22;9278;52.156;21.048;2023-04-06T08:43:17;4.00;99.90
18305;DHT22;9278;52.156;21.048;2023-04-06T08:45:47;2.00;99.90
18305;DHT22;9278;52.156;21.048;2023-04-06T08:48:17;3.70;99.90
18305;DHT22;9278;52.156;21.048;2023-04-06T08:50:45;3.60;99.90
18305;DHT22;9278;52.156;21.048;2023-04-06T08:55:43;3.70;99.90
18305;DHT22;9278;52.156;21.048;2023-04-06T08:58:12;3.50;99.90
18305;DHT22;9278;52.156;21.048;2023-04-06T09:00:59;3.20;99.90
18305;DHT22;9278;52.156;21.048;2023-04-06T09:03:29;3.30;99.90
18305;DHT22;9278;52.156;21.048;2023-04-06T09:05:59;3.40;99.90
18305;DHT22;9278;52.156;21.048;2023-04-06T09:08:27;3.20;99.90
18305;DHT22;9278;52.156;21.048;2023-04-06T09:10:56;3.50;99.90
18305;DHT22;9278;52.156;21.048;2023-04-06T09:13:24;3.20;99.90
18305;DHT22;9278;52.156;21.048;2023-04-06T09:16:01;3.10;99.90
18305;DHT22;9278;52.156;21.048;2023-04-06T09:18:30;2.80;99.90
18305;DHT22;9278;52.156;21.048;2023-04-06T09:21:00;3.00;99.90
18305;DHT22;9278;52.156;21.048;2023-04-06T09:23:29;2.80;99.90
18305;DHT22;9278;52.156;21.048;2023-04-06T09:26:05;3.10;99.90
18305;DHT22;9278;52.156;21.048;2023-04-06T09:28:48;3.40;99.90
18305;DHT22;9278;52.156;21.048;2023-04-06T09:31:25;3.00;99.90
18305;DHT22;9278;52.156;21.048;2023-04-06T09:33:54;3.00;99.90
18305;DHT22;9278;52.156;21.048;2023-04-06T09:36:30;3.00;99.90
18305;DHT22;9278;52.156;21.048;2023-04-06T09:39:00;2.80;99.90
18305;DHT22;9278;52.156;21.048;2023-04-06T09:41:29;2.30;99.90
18305;DHT22;9278;52.156;21.048;2023-04-06T09:44:05;1.80;99.90
18305;DHT22;9278;52.156;21.048;2023-04-06T09:46:36;1.70;99.90
18305;DHT22;9278;52.156;21.048;2023-04-06T09:49:27;1.90;99.90
18305;DHT22;9278;52.156;21.048;2023-04-06T09:51:58;2.10;99.90
18305;DHT22;9278;52.156;21.048;2023-04-06T09:54:29;2.10;81.30
18305;DHT22;9278;52.156;21.048;2023-04-06T09:57:07;2.40;99.90
18305;DHT22;9278;52.156;21.048;2023-04-06T09:59:52;2.50;1.00
18305;DHT22;9278;52.156;21.048;2023-04-06T10:02:30;2.10;1.00
18305;DHT22;9278;52.156;21.048;2023-04-06T10:05:07;2.20;1.00
18305;DHT22;9278;52.156;21.048;2023-04-06T10:12:54;2.30;1.00
18305;DHT22;9278;52.156;21.048;2023-04-06T10:15:22;2.30;99.90
18305;DHT22;9278;52.156;21.048;2023-04-06T10:17:52;2.50;1.00
18305;DHT22;9278;52.156;21.048;2023-04-06T10:20:23;2.30;99.90
18305;DHT22;9278;52.156;21.048;2023-04-06T10:22:58;1.80;1.00
18305;DHT22;9278;52.156;21.048;2023-04-06T10:25:28;2.10;1.00
18305;DHT22;9278;52.156;21.048;2023-04-06T10:27:59;2.10;17.20
18305;DHT22;9278;52.156;21.048;2023-04-06T10:30:29;1.90;1.00
18305;DHT22;9278;52.156;21.048;2023-04-06T10:32:59;2.00;1.00
18305;DHT22;9278;52.156;21.048;2023-04-06T10:35:37;2.20;1.00
18305;DHT22;9278;52.156;21.048;2023-04-06T10:38:06;1.70;1.00
18305;DHT22;9278;52.156;21.048;2023-04-06T10:40:37;2.60;99.90
18305;DHT22;9278;52.156;21.048;2023-04-06T10:43:09;1.90;99.90
18305;DHT22;9278;52.156;21.048;2023-04-06T10:45:39;2.20;1.00
18305;DHT22;9278;52.156;21.048;2023-04-06T10:48:15;2.10;1.00
18305;DHT22;9278;52.156;21.048;2023-04-06T10:50:46;2.10;1.00
18305;DHT22;9278;52.156;21.048;2023-04-06T10:53:21;2.40;99.90
18305;DHT22;9278;52.156;21.048;2023-04-06T10:55:49;2.30;1.00
18305;DHT22;9278;52.156;21.048;2023-04-06T10:58:18;2.20;1.00
18305;DHT22;9278;52.156;21.048;2023-04-06T11:00:48;2.60;99.90
18305;DHT22;9278;52.156;21.048;2023-04-06T11:03:18;2.60;99.90
18305;DHT22;9278;52.156;21.048;2023-04-06T11:05:49;2.50;99.90
18305;DHT22;9278;52.156;21.048;2023-04-06T11:08:25;2.20;99.90
18305;DHT22;9278;52.156;21.048;2023-04-06T11:11:04;2.70;1.00
18305;DHT22;9278;52.156;21.048;2023-04-06T11:13:40;2.50;99.90
18305;DHT22;9278;52.156;21.048;2023-04-06T11:16:16;2.40;1.00
18305;DHT22;9278;52.156;21.048;2023-04-06T11:18:53;2.50;1.00
18305;DHT22;9278;52.156;21.048;2023-04-06T11:21:33;2.40;1.00
18305;DHT22;9278;52.156;21.048;2023-04-06T11:24:09;2.70;99.90
18305;DHT22;9278;52.156;21.048;2023-04-06T11:26:39;3.00;99.90
18305;DHT22;9278;52.156;21.048;2023-04-06T11:29:08;3.00;99.90
18305;DHT22;9278;52.156;21.048;2023-04-06T11:31:45;2.90;99.90
18305;DHT22;9278;52.156;21.048;2023-04-06T11:34:17;2.80;99.90
18305;DHT22;9278;52.156;21.048;2023-04-06T11:36:46;2.90;99.90
18305;DHT22;9278;52.156;21.048;2023-04-06T11:39:19;3.00;99.90
18305;DHT22;9278;52.156;21.048;2023-04-06T11:41:48;2.80;99.90
18305;DHT22;9278;52.156;21.048;2023-04-06T11:44:31;2.80;99.90
18305;DHT22;9278;52.156;21.048;2023-04-06T11:47:00;2.70;99.90
18305;DHT22;9278;52.156;21.048;2023-04-06T11:49:30;3.00;99.90
18305;DHT22;9278;52.156;21.048;2023-04-06T11:52:00;2.60;99.90
18305;DHT22;9278;52.156;21.048;2023-04-06T11:54:32;2.60;1.00
18305;DHT22;9278;52.156;21.048;2023-04-06T11:57:02;2.90;1.00
18305;DHT22;9278;52.156;21.048;2023-04-06T11:59:30;3.00;99.90
18305;DHT22;9278;52.156;21.048;2023-04-06T12:02:01;3.00;99.90
18305;DHT22;9278;52.156;21.048;2023-04-06T12:04:30;3.10;1.00
18305;DHT22;9278;52.156;21.048;2023-04-06T12:09:27;2.90;99.90
18305;DHT22;9278;52.156;21.048;2023-04-06T12:14:24;3.10;1.00
18305;DHT22;9278;52.156;21.048;2023-04-06T12:16:52;3.30;1.00
18305;DHT22;9278;52.156;21.048;2023-04-06T12:19:20;3.30;1.00
18305;DHT22;9278;52.156;21.048;2023-04-06T12:21:54;3.00;1.00
18305;DHT22;9278;52.156;21.048;2023-04-06T12:24:23;3.40;1.00
18305;DHT22;9278;52.156;21.048;2023-04-06T12:26:53;2.90;1.00
18305;DHT22;9278;52.156;21.048;2023-04-06T12:29:36;3.20;1.00
18305;DHT22;9278;52.156;21.048;2023-04-06T12:32:04;3.30;1.00
18305;DHT22;9278;52.156;21.048;2023-04-06T12:34:32;3.20;1.00
18305;DHT22;9278;52.156;21.048;2023-04-06T12:37:02;3.30;1.00
18305;DHT22;9278;52.156;21.048;2023-04-06T12:39:30;3.10;1.00
18305;DHT22;9278;52.156;21.048;2023-04-06T12:41:59;2.80;1.00
18305;DHT22;9278;52.156;21.048;2023-04-06T12:44:28;3.20;99.90
18305;DHT22;9278;52.156;21.048;2023-04-06T12:46:56;3.30;99.90
18305;DHT22;9278;52.156;21.048;2023-04-06T12:49:25;3.10;99.90
18305;DHT22;9278;52.156;21.048;2023-04-06T12:51:55;3.00;1.00
18305;DHT22;9278;52.156;21.048;2023-04-06T12:54:25;2.90;1.00
18305;DHT22;9278;52.156;21.048;2023-04-06T12:56:53;2.90;99.90
18305;DHT22;9278;52.156;21.048;2023-04-06T12:59:22;3.10;1.00
18305;DHT22;9278;52.156;21.048;2023-04-06T13:01:52;3.00;1.00
18305;DHT22;9278;52.156;21.048;2023-04-06T13:04:20;3.00;1.00
18305;DHT22;9278;52.156;21.048;2023-04-06T13:06:48;3.00;99.90
18305;DHT22;9278;52.156;21.048;2023-04-06T13:09:17;3.00;99.90
18305;DHT22;9278;52.156;21.048;2023-04-06T13:11:46;3.10;98.00
18305;DHT22;9278;52.156;21.048;2023-04-06T13:14:14;3.00;1.00
18305;DHT22;9278;52.156;21.048;2023-04-06T13:16:43;2.90;99.90
18305;DHT22;9278;52.156;21.048;2023-04-06T13:19:12;3.30;99.90
18305;DHT22;9278;52.156;21.048;2023-04-06T13:24:08;3.80;99.90
18305;DHT22;9278;52.156;21.048;2023-04-06T13:26:36;4.70;99.90
18305;DHT22;9278;52.156;21.048;2023-04-06T13:29:06;4.70;99.90
18305;DHT22;9278;52.156;21.048;2023-04-06T13:31:34;4.60;99.90
18305;DHT22;9278;52.156;21.048;2023-04-06T13:34:03;4.90;99.90
18305;DHT22;9278;52.156;21.048;2023-04-06T13:36:31;4.90;99.90
18305;DHT22;9278;52.156;21.048;2023-04-06T13:39:00;4.70;99.90
18305;DHT22;9278;52.156;21.048;2023-04-06T13:41:28;4.60;99.90
18305;DHT22;9278;52.156;21.048;2023-04-06T13:43:57;4.90;99.90
18305;DHT22;9278;52.156;21.048;2023-04-06T13:46:26;5.50;99.90
18305;DHT22;9278;52.156;21.048;2023-04-06T13:48:55;5.80;99.90
18305;DHT22;9278;52.156;21.048;2023-04-06T13:51:23;5.90;99.90
18305;DHT22;9278;52.156;21.048;2023-04-06T13:53:53;6.00;99.90
18305;DHT22;9278;52.156;21.048;2023-04-06T13:56:21;6.10;99.90
18305;DHT22;9278;52.156;21.048;2023-04-06T13:58:52;6.40;99.90
18305;DHT22;9278;52.156;21.048;2023-04-06T14:01:21;6.40;99.90
18305;DHT22;9278;52.156;21.048;2023-04-06T14:03:51;6.50;99.90
18305;DHT22;9278;52.156;21.048;2023-04-06T14:06:19;6.70;99.90
18305;DHT22;9278;52.156;21.048;2023-04-06T14:08:58;6.80;99.90
18305;DHT22;9278;52.156;21.048;2023-04-06T14:11:26;7.60;99.90
18305;DHT22;9278;52.156;21.048;2023-04-06T14:13:54;7.40;99.90
18305;DHT22;9278;52.156;21.048;2023-04-06T14:16:24;7.20;99.90
18305;DHT22;9278;52.156;21.048;2023-04-06T14:18:54;6.50;99.90
18305;DHT22;9278;52.156;21.048;2023-04-06T14:21:24;6.80;99.90
18305;DHT22;9278;52.156;21.048;2023-04-06T14:26:25;6.90;99.90
18305;DHT22;9278;52.156;21.048;2023-04-06T14:28:54;7.00;99.90
18305;DHT22;9278;52.156;21.048;2023-04-06T14:31:22;7.30;99.90
18305;DHT22;9278;52.156;21.048;2023-04-06T14:33:51;7.00;99.90
18305;DHT22;9278;52.156;21.048;2023-04-06T14:36:20;7.10;99.90
18305;DHT22;9278;52.156;21.048;2023-04-06T14:38:48;7.20;99.90
18305;DHT22;9278;52.156;21.048;2023-04-06T14:41:17;7.20;99.90
18305;DHT22;9278;52.156;21.048;2023-04-06T14:43:46;7.20;99.90
18305;DHT22;9278;52.156;21.048;2023-04-06T14:46:15;6.90;99.90
18305;DHT22;9278;52.156;21.048;2023-04-06T14:48:43;7.20;99.90
18305;DHT22;9278;52.156;21.048;2023-04-06T14:51:13;7.20;99.90
18305;DHT22;9278;52.156;21.048;2023-04-06T14:53:43;7.20;99.90
18305;DHT22;9278;52.156;21.048;2023-04-06T14:56:11;7.20;99.90
18305;DHT22;9278;52.156;21.048;2023-04-06T14:58:39;7.20;99.90
18305;DHT22;9278;52.156;21.048;2023-04-06T15:01:08;7.30;99.90
18305;DHT22;9278;52.156;21.048;2023-04-06T15:03:36;7.30;99.90
18305;DHT22;9278;52.156;21.048;2023-04-06T15:06:05;7.30;99.90
18305;DHT22;9278;52.156;21.048;2023-04-06T15:08:34;7.30;99.90
18305;DHT22;9278;52.156;21.048;2023-04-06T15:11:03;7.40;99.90
18305;DHT22;9278;52.156;21.048;2023-04-06T15:13:32;7.60;99.90
18305;DHT22;9278;52.156;21.048;2023-04-06T15:16:00;7.50;99.90
18305;DHT22;9278;52.156;21.048;2023-04-06T15:18:28;7.50;99.90
18305;DHT22;9278;52.156;21.048;2023-04-06T15:20:56;7.90;99.90
18305;DHT22;9278;52.156;21.048;2023-04-06T15:23:25;7.60;99.90
18305;DHT22;9278;52.156;21.048;2023-04-06T15:25:56;7.50;99.90
18305;DHT22;9278;52.156;21.048;2023-04-06T15:28:26;7.40;99.90
18305;DHT22;9278;52.156;21.048;2023-04-06T15:30:55;7.40;99.90
18305;DHT22;9278;52.156;21.048;2023-04-06T15:33:24;7.40;99.90
18305;DHT22;9278;52.156;21.048;2023-04-06T15:35:53;7.40;99.90
18305;DHT22;9278;52.156;21.048;2023-04-06T15:38:22;7.40;99.90
18305;DHT22;9278;52.156;21.048;2023-04-06T15:40:50;7.50;99.90
18305;DHT22;9278;52.156;21.048;2023-04-06T15:43:18;7.10;99.90
18305;DHT22;9278;52.156;21.048;2023-04-06T15:45:48;7.30;99.90
18305;DHT22;9278;52.156;21.048;2023-04-06T15:48:16;7.50;99.90
18305;DHT22;9278;52.156;21.048;2023-04-06T15:50:45;7.50;99.90
18305;DHT22;9278;52.156;21.048;2023-04-06T15:53:13;7.50;99.90
18305;DHT22;9278;52.156;21.048;2023-04-06T15:55:42;7.50;99.90
18305;DHT22;9278;52.156;21.048;2023-04-06T15:58:10;7.30;99.90
18305;DHT22;9278;52.156;21.048;2023-04-06T16:00:38;7.50;99.90
18305;DHT22;9278;52.156;21.048;2023-04-06T16:03:08;7.60;99.90
18305;DHT22;9278;52.156;21.048;2023-04-06T16:05:36;7.40;99.90
18305;DHT22;9278;52.156;21.048;2023-04-06T16:08:25;7.20;99.90
18305;DHT22;9278;52.156;21.048;2023-04-06T16:10:53;7.10;99.90
18305;DHT22;9278;52.156;21.048;2023-04-06T16:13:21;7.20;99.90
18305;DHT22;9278;52.156;21.048;2023-04-06T16:15:49;7.00;99.90
18305;DHT22;9278;52.156;21.048;2023-04-06T16:18:19;7.00;99.90
18305;DHT22;9278;52.156;21.048;2023-04-06T16:20:48;7.10;99.90
18305;DHT22;9278;52.156;21.048;2023-04-06T16:23:16;7.00;99.90
18305;DHT22;9278;52.156;21.048;2023-04-06T16:25:45;7.20;99.90
18305;DHT22;9278;52.156;21.048;2023-04-06T16:28:13;7.20;99.90
18305;DHT22;9278;52.156;21.048;2023-04-06T16:30:41;7.10;99.90
18305;DHT22;9278;52.156;21.048;2023-04-06T16:33:12;7.10;99.90
18305;DHT22;9278;52.156;21.048;2023-04-06T16:35:45;7.20;99.90
18305;DHT22;9278;52.156;21.048;2023-04-06T16:38:13;7.20;99.90
18305;DHT22;9278;52.156;21.048;2023-04-06T16:40:42;7.30;99.90
18305;DHT22;9278;52.156;21.048;2023-04-06T16:43:10;7.20;99.90
18305;DHT22;9278;52.156;21.048;2023-04-06T16:45:39;7.90;99.90
18305;DHT22;9278;52.156;21.048;2023-04-06T16:48:07;7.20;99.90
18305;DHT22;9278;52.156;21.048;2023-04-06T16:50:35;6.60;99.90
18305;DHT22;9278;52.156;21.048;2023-04-06T16:53:05;7.00;99.90